createdAt,value
2022-08-01T00:01:31.883Z,20.52
2022-08-01T00:03:59.915Z,20.45
2022-08-01T00:06:28.164Z,20.53
2022-08-01T00:08:56.467Z,20.49
2022-08-01T00:11:24.562Z,20.45
2022-08-01T00:13:52.542Z,20.54
2022-08-01T00:16:23.683Z,20.40
2022-08-01T00:18:53.621Z,20.42
2022-08-01T00:21:21.648Z,20.40
2022-08-01T00:23:49.920Z,20.47
2022-08-01T00:26:17.944Z,20.53
2022-08-01T00:28:45.964Z,20.41
2022-08-01T00:31:14.197Z,20.40
2022-08-01T00:33:42.183Z,20.40
2022-08-01T00:36:11.691Z,20.37
2022-08-01T00:38:39.741Z,20.33
2022-08-01T00:41:07.749Z,20.25
2022-08-01T00:43:35.817Z,20.16
2022-08-01T00:46:03.849Z,20.20
2022-08-01T00:48:31.864Z,20.23
2022-08-01T00:51:00.013Z,20.21
2022-08-01T00:53:38.759Z,20.29
2022-08-01T00:56:17.577Z,20.44
2022-08-01T00:58:45.885Z,20.49
2022-08-01T01:01:14.111Z,20.53
2022-08-01T01:03:58.656Z,20.45
2022-08-01T01:06:40.229Z,20.40
2022-08-01T01:09:26.058Z,20.25
2022-08-01T01:12:04.786Z,20.40
2022-08-01T01:14:39.009Z,20.28
2022-08-01T01:17:10.060Z,20.35
2022-08-01T01:19:43.726Z,20.22
2022-08-01T01:22:32.517Z,20.07
2022-08-01T01:25:12.189Z,20.12
2022-08-01T01:27:50.618Z,20.14
2022-08-01T01:30:20.929Z,20.25
2022-08-01T01:32:52.217Z,20.18
2022-08-01T01:35:26.331Z,20.29
2022-08-01T01:38:07.590Z,20.31
2022-08-01T01:40:36.480Z,20.21
2022-08-01T01:43:04.650Z,20.19
2022-08-01T01:45:34.520Z,20.27
2022-08-01T01:48:04.211Z,19.98
2022-08-01T01:50:33.046Z,19.95
2022-08-01T01:53:02.800Z,19.99
2022-08-01T01:55:32.271Z,20.12
2022-08-01T01:58:02.341Z,19.92
2022-08-01T02:00:34.025Z,19.98
2022-08-01T02:03:04.766Z,19.99
2022-08-01T02:05:35.467Z,20.19
2022-08-01T02:08:04.671Z,20.14
2022-08-01T02:10:34.281Z,20.13
2022-08-01T02:13:05.937Z,20.04
2022-08-01T02:15:39.341Z,19.96
2022-08-01T02:18:27.622Z,19.89
2022-08-01T02:20:58.031Z,19.79
2022-08-01T02:23:30.446Z,19.82
2022-08-01T02:26:09.183Z,19.76
2022-08-01T02:28:45.806Z,19.80
2022-08-01T02:31:20.234Z,19.82
2022-08-01T02:33:54.374Z,19.87
2022-08-01T02:36:30.585Z,19.83
2022-08-01T02:39:04.482Z,19.92
2022-08-01T02:41:35.682Z,19.90
2022-08-01T02:44:07.318Z,19.88
2022-08-01T02:46:40.607Z,19.81
2022-08-01T02:49:11.609Z,19.78
2022-08-01T02:51:42.069Z,19.81
2022-08-01T02:54:12.687Z,19.87
2022-08-01T02:56:42.203Z,19.82
2022-08-01T02:59:16.132Z,19.87
2022-08-01T03:01:50.362Z,19.90
2022-08-01T03:04:20.149Z,19.90
2022-08-01T03:06:49.357Z,19.80
2022-08-01T03:09:18.943Z,19.82
2022-08-01T03:11:49.060Z,19.81
2022-08-01T03:14:18.307Z,19.78
2022-08-01T03:16:49.338Z,19.82
2022-08-01T03:19:20.400Z,19.76
2022-08-01T03:21:50.530Z,19.75
2022-08-01T03:24:19.774Z,19.77
2022-08-01T03:26:48.489Z,19.68
2022-08-01T03:29:19.558Z,19.58
2022-08-01T03:31:51.365Z,19.60
2022-08-01T03:34:22.341Z,19.64
2022-08-01T03:36:55.428Z,19.62
2022-08-01T03:39:27.241Z,19.61
2022-08-01T03:42:00.369Z,19.65
2022-08-01T03:44:31.263Z,19.67
2022-08-01T03:47:04.750Z,19.48
2022-08-01T03:49:35.316Z,19.54
2022-08-01T03:52:06.403Z,19.49
2022-08-01T03:54:38.732Z,19.49
2022-08-01T03:57:07.867Z,19.41
2022-08-01T03:59:49.166Z,19.38
2022-08-01T04:02:22.723Z,19.31
2022-08-01T04:04:50.781Z,19.43
2022-08-01T04:07:26.598Z,19.70
2022-08-01T04:09:55.026Z,19.95
2022-08-01T04:12:23.630Z,20.07
2022-08-01T04:14:51.689Z,20.12
2022-08-01T04:17:21.143Z,20.27
2022-08-01T04:19:49.177Z,20.34
2022-08-01T04:22:17.819Z,20.74
2022-08-01T04:24:54.694Z,21.01
2022-08-01T04:27:51.152Z,21.27
2022-08-01T04:30:21.094Z,21.46
2022-08-01T04:32:52.005Z,21.59
2022-08-01T04:35:22.973Z,21.89
2022-08-01T04:38:13.890Z,21.98
2022-08-01T04:40:42.739Z,22.18
2022-08-01T04:43:11.361Z,22.35
2022-08-01T04:45:40.363Z,22.59
2022-08-01T04:48:12.061Z,22.78
2022-08-01T04:50:42.967Z,23.10
2022-08-01T04:53:15.517Z,23.26
2022-08-01T04:55:43.499Z,23.25
2022-08-01T04:58:16.154Z,23.47
2022-08-01T05:00:45.869Z,23.49
2022-08-01T05:03:15.295Z,23.68
2022-08-01T05:05:43.406Z,23.86
2022-08-01T05:08:11.382Z,23.82
2022-08-01T05:10:39.451Z,23.89
2022-08-01T05:13:07.626Z,24.05
2022-08-01T05:15:37.745Z,24.25
2022-08-01T05:18:07.759Z,24.45
2022-08-01T05:20:39.034Z,24.60
2022-08-01T05:23:10.483Z,24.73
2022-08-01T05:25:57.305Z,24.92
2022-08-01T05:28:26.194Z,25.04
2022-08-01T05:30:55.957Z,25.12
2022-08-01T05:33:24.415Z,25.27
2022-08-01T05:35:53.818Z,25.49
2022-08-01T05:38:21.854Z,25.58
2022-08-01T05:40:49.888Z,25.87
2022-08-01T05:43:18.840Z,25.90
2022-08-01T05:45:47.145Z,25.96
2022-08-01T05:48:15.185Z,26.07
2022-08-01T05:50:43.231Z,26.38
2022-08-01T05:53:12.746Z,26.19
2022-08-01T05:55:40.768Z,26.31
2022-08-01T05:58:08.743Z,26.48
2022-08-01T06:00:40.643Z,26.55
2022-08-01T06:03:08.640Z,26.53
2022-08-01T06:05:36.692Z,26.79
2022-08-01T06:08:05.034Z,26.94
2022-08-01T06:10:34.547Z,27.04
2022-08-01T06:13:04.127Z,27.34
2022-08-01T06:15:32.345Z,27.30
2022-08-01T06:18:00.785Z,27.43
2022-08-01T06:20:28.927Z,27.50
2022-08-01T06:22:56.970Z,27.72
2022-08-01T06:25:28.108Z,27.77
2022-08-01T06:27:57.498Z,27.69
2022-08-01T06:30:25.608Z,27.83
2022-08-01T06:32:53.999Z,27.85
2022-08-01T06:35:22.169Z,28.01
2022-08-01T06:37:50.261Z,27.97
2022-08-01T06:40:18.984Z,27.96
2022-08-01T06:42:47.963Z,28.09
2022-08-01T06:45:17.807Z,28.27
2022-08-01T06:47:50.846Z,28.21
2022-08-01T06:50:19.059Z,28.07
2022-08-01T06:52:47.303Z,28.17
2022-08-01T06:55:15.878Z,28.32
2022-08-01T06:57:51.120Z,28.63
2022-08-01T07:00:23.588Z,28.65
2022-08-01T07:02:52.229Z,28.84
2022-08-01T07:05:20.554Z,29.01
2022-08-01T07:07:48.561Z,29.27
2022-08-01T07:10:16.604Z,29.38
2022-08-01T07:12:44.633Z,29.22
2022-08-01T07:15:13.707Z,29.25
2022-08-01T07:17:44.274Z,29.26
2022-08-01T07:20:16.522Z,29.47
2022-08-01T07:22:47.536Z,29.65
2022-08-01T07:25:16.522Z,29.65
2022-08-01T07:27:44.583Z,29.60
2022-08-01T07:30:13.269Z,29.79
2022-08-01T07:32:42.733Z,29.87
2022-08-01T07:35:11.581Z,30.24
2022-08-01T07:37:47.977Z,29.51
2022-08-01T07:40:17.907Z,29.67
2022-08-01T07:42:46.152Z,29.60
2022-08-01T07:45:15.286Z,29.45
2022-08-01T07:47:45.046Z,29.52
2022-08-01T07:50:13.773Z,29.23
2022-08-01T07:52:42.044Z,29.56
2022-08-01T07:55:11.152Z,29.74
2022-08-01T07:57:39.379Z,29.42
2022-08-01T08:00:09.912Z,29.67
2022-08-01T08:02:37.919Z,29.77
2022-08-01T08:05:08.523Z,30.04
2022-08-01T08:07:36.829Z,30.31
2022-08-01T08:10:05.714Z,30.15
2022-08-01T08:12:34.372Z,29.34
2022-08-01T08:15:02.408Z,29.43
2022-08-01T08:17:35.561Z,29.66
2022-08-01T08:20:08.891Z,28.97
2022-08-01T08:22:38.664Z,29.38
2022-08-01T08:25:08.378Z,29.20
2022-08-01T08:27:37.324Z,29.14
2022-08-01T08:30:08.649Z,28.87
2022-08-01T08:32:37.009Z,29.12
2022-08-01T08:35:06.091Z,29.38
2022-08-01T08:37:39.151Z,29.53
2022-08-01T08:40:17.957Z,29.21
2022-08-01T08:42:48.333Z,28.98
2022-08-01T08:45:16.423Z,29.02
2022-08-01T08:47:48.087Z,28.72
2022-08-01T08:50:16.540Z,28.15
2022-08-01T08:52:46.746Z,28.49
2022-08-01T08:55:18.002Z,28.32
2022-08-01T08:57:47.971Z,28.56
2022-08-01T09:00:17.295Z,28.97
2022-08-01T09:02:46.584Z,29.19
2022-08-01T09:05:19.261Z,29.53
2022-08-01T09:07:47.863Z,30.10
2022-08-01T09:10:17.406Z,30.41
2022-08-01T09:13:11.828Z,30.68
2022-08-01T09:15:41.546Z,30.77
2022-08-01T09:18:09.795Z,31.22
2022-08-01T09:20:37.821Z,31.40
2022-08-01T09:23:05.880Z,31.51
2022-08-01T09:25:52.632Z,31.38
2022-08-01T09:28:29.632Z,31.24
2022-08-01T09:30:58.770Z,31.36
2022-08-01T09:33:27.087Z,31.26
2022-08-01T09:35:58.581Z,31.29
2022-08-01T09:38:28.597Z,31.59
2022-08-01T09:41:01.400Z,31.69
2022-08-01T09:43:32.407Z,32.02
2022-08-01T09:46:01.607Z,31.95
2022-08-01T09:48:30.136Z,31.11
2022-08-01T09:51:04.131Z,31.15
2022-08-01T09:53:52.655Z,30.99
2022-08-01T09:56:24.499Z,30.97
2022-08-01T09:58:59.406Z,30.62
2022-08-01T10:01:36.932Z,30.83
2022-08-01T10:04:09.884Z,30.73
2022-08-01T10:06:39.139Z,30.53
2022-08-01T10:09:07.382Z,30.45
2022-08-01T10:11:40.378Z,30.35
2022-08-01T10:14:08.766Z,29.99
2022-08-01T10:16:38.400Z,29.97
2022-08-01T10:19:11.225Z,29.71
2022-08-01T10:21:57.097Z,29.62
2022-08-01T10:24:29.862Z,29.42
2022-08-01T10:27:12.624Z,29.43
2022-08-01T10:30:05.469Z,29.24
2022-08-01T10:32:34.364Z,28.97
2022-08-01T10:35:06.771Z,28.90
2022-08-01T10:37:36.427Z,28.87
2022-08-01T10:40:36.960Z,28.81
2022-08-01T10:43:07.096Z,28.82
2022-08-01T10:45:36.033Z,28.83
2022-08-01T10:48:11.692Z,28.82
2022-08-01T10:50:44.760Z,28.86
2022-08-01T10:53:23.989Z,28.79
2022-08-01T10:56:04.071Z,28.77
2022-08-01T10:58:42.811Z,28.82
2022-08-01T11:01:23.824Z,28.96
2022-08-01T11:04:15.499Z,29.21
2022-08-01T11:06:51.929Z,29.57
2022-08-01T11:09:37.235Z,29.89
2022-08-01T11:12:13.295Z,30.16
2022-08-01T11:15:31.933Z,30.07
2022-08-01T11:18:02.170Z,29.83
2022-08-01T11:20:32.597Z,29.92
2022-08-01T11:23:36.182Z,29.93
2022-08-01T11:26:29.326Z,29.90
2022-08-01T11:29:22.423Z,30.18
2022-08-01T11:31:53.448Z,30.49
2022-08-01T11:34:21.811Z,30.83
2022-08-01T11:36:59.800Z,30.94
2022-08-01T11:39:28.173Z,31.09
2022-08-01T11:42:17.870Z,31.07
2022-08-01T11:44:51.360Z,31.40
2022-08-01T11:47:41.152Z,31.71
2022-08-01T11:50:33.420Z,32.04
2022-08-01T11:53:02.387Z,32.12
2022-08-01T11:55:31.471Z,32.10
2022-08-01T11:58:02.398Z,31.96
2022-08-01T12:00:32.630Z,31.93
2022-08-01T12:03:04.687Z,32.10
2022-08-01T12:05:34.538Z,32.41
2022-08-01T12:08:03.443Z,32.46
2022-08-01T12:10:49.671Z,32.49
2022-08-01T12:13:19.121Z,32.26
2022-08-01T12:15:47.638Z,32.44
2022-08-01T12:18:17.238Z,32.41
2022-08-01T12:20:57.090Z,32.43
2022-08-01T12:23:25.629Z,32.52
2022-08-01T12:25:54.875Z,32.31
2022-08-01T12:28:23.910Z,32.18
2022-08-01T12:30:52.590Z,31.93
2022-08-01T12:33:22.942Z,31.85
2022-08-01T12:35:51.267Z,30.77
2022-08-01T12:38:23.223Z,30.77
2022-08-01T12:40:53.292Z,30.72
2022-08-01T12:43:28.455Z,30.61
2022-08-01T12:45:58.587Z,30.56
2022-08-01T12:48:29.112Z,30.66
2022-08-01T12:50:59.263Z,30.82
2022-08-01T12:53:40.784Z,30.92
2022-08-01T12:56:11.353Z,31.12
2022-08-01T12:58:39.816Z,30.96
2022-08-01T13:01:10.116Z,31.13
2022-08-01T13:03:40.025Z,31.11
2022-08-01T13:06:15.972Z,31.32
2022-08-01T13:08:45.436Z,31.14
2022-08-01T13:11:16.894Z,31.22
2022-08-01T13:13:48.382Z,31.36
2022-08-01T13:16:30.294Z,31.43
2022-08-01T13:19:08.082Z,31.56
2022-08-01T13:21:54.373Z,31.89
2022-08-01T13:24:28.071Z,31.60
2022-08-01T13:27:01.413Z,31.51
2022-08-01T13:29:33.985Z,31.45
2022-08-01T13:32:02.942Z,31.24
2022-08-01T13:34:36.510Z,31.36
2022-08-01T13:37:04.669Z,31.12
2022-08-01T13:39:43.264Z,31.12
2022-08-01T13:42:11.558Z,31.05
2022-08-01T13:44:47.830Z,31.28
2022-08-01T13:47:16.341Z,31.01
2022-08-01T13:49:46.693Z,31.03
2022-08-01T13:52:14.891Z,31.06
2022-08-01T13:54:43.045Z,31.26
2022-08-01T13:57:12.061Z,31.23
2022-08-01T13:59:40.224Z,31.29
2022-08-01T14:02:08.733Z,31.29
2022-08-01T14:04:37.102Z,31.27
2022-08-01T14:07:10.718Z,31.13
2022-08-01T14:09:57.794Z,31.07
2022-08-01T14:12:31.153Z,31.08
2022-08-01T14:14:59.287Z,30.96
2022-08-01T14:17:28.497Z,30.93
2022-08-01T14:19:57.701Z,30.66
2022-08-01T14:22:27.268Z,30.56
2022-08-01T14:25:00.825Z,30.27
2022-08-01T14:27:31.950Z,30.12
2022-08-01T14:30:03.882Z,30.00
2022-08-01T14:32:34.332Z,29.81
2022-08-01T14:35:02.627Z,29.69
2022-08-01T14:37:37.604Z,29.61
2022-08-01T14:40:10.716Z,29.62
2022-08-01T14:42:40.009Z,29.70
2022-08-01T14:45:10.582Z,29.81
2022-08-01T14:47:39.360Z,29.75
2022-08-01T14:50:09.292Z,29.51
2022-08-01T14:52:39.974Z,29.47
2022-08-01T14:55:09.902Z,29.76
2022-08-01T14:57:39.267Z,29.73
2022-08-01T15:00:11.245Z,29.48
2022-08-01T15:02:39.556Z,29.41
2022-08-01T15:05:09.113Z,29.40
2022-08-01T15:07:43.782Z,29.48
2022-08-01T15:10:20.562Z,29.51
2022-08-01T15:12:50.630Z,29.48
2022-08-01T15:15:18.934Z,29.49
2022-08-01T15:17:47.281Z,29.47
2022-08-01T15:20:15.249Z,29.57
2022-08-01T15:22:44.657Z,29.43
2022-08-01T15:25:12.689Z,29.51
2022-08-01T15:27:40.666Z,29.51
2022-08-01T15:30:09.911Z,29.58
2022-08-01T15:32:37.939Z,29.47
2022-08-01T15:35:07.255Z,29.37
2022-08-01T15:37:38.464Z,29.19
2022-08-01T15:40:12.496Z,29.00
2022-08-01T15:42:40.562Z,28.81
2022-08-01T15:45:20.705Z,28.74
2022-08-01T15:47:58.350Z,28.70
2022-08-01T15:50:26.400Z,28.80
2022-08-01T15:52:54.425Z,28.73
2022-08-01T15:55:23.846Z,28.79
2022-08-01T15:57:51.875Z,28.83
2022-08-01T16:00:19.971Z,28.67
2022-08-01T16:02:48.434Z,28.75
2022-08-01T16:05:19.697Z,28.55
2022-08-01T16:07:59.825Z,28.54
2022-08-01T16:10:31.986Z,28.37
2022-08-01T16:13:00.291Z,28.42
2022-08-01T16:15:36.640Z,28.54
2022-08-01T16:18:06.482Z,28.39
2022-08-01T16:20:34.628Z,28.55
2022-08-01T16:23:03.061Z,28.53
2022-08-01T16:25:32.492Z,28.51
2022-08-01T16:28:00.531Z,28.48
2022-08-01T16:30:28.693Z,28.53
2022-08-01T16:33:00.161Z,28.39
2022-08-01T16:35:36.269Z,28.27
2022-08-01T16:38:05.783Z,28.27
2022-08-01T16:40:47.711Z,28.20
2022-08-01T16:43:16.881Z,28.16
2022-08-01T16:45:45.633Z,28.08
2022-08-01T16:48:15.461Z,28.14
2022-08-01T16:50:43.686Z,28.17
2022-08-01T16:53:13.233Z,27.93
2022-08-01T16:55:50.552Z,27.85
2022-08-01T16:58:22.273Z,27.77
2022-08-01T17:00:57.619Z,27.83
2022-08-01T17:03:46.680Z,27.91
2022-08-01T17:06:16.789Z,27.81
2022-08-01T17:08:47.191Z,27.87
2022-08-01T17:11:17.139Z,27.83
2022-08-01T17:13:45.584Z,27.75
2022-08-01T17:16:13.680Z,27.78
2022-08-01T17:18:41.758Z,27.76
2022-08-01T17:21:09.962Z,27.74
2022-08-01T17:23:38.962Z,27.77
2022-08-01T17:26:07.002Z,27.73
2022-08-01T17:28:36.534Z,27.61
2022-08-01T17:31:07.481Z,27.57
2022-08-01T17:33:46.143Z,27.55
2022-08-01T17:36:17.878Z,27.50
2022-08-01T17:38:45.993Z,27.48
2022-08-01T17:41:14.397Z,27.42
2022-08-01T17:43:44.745Z,27.38
2022-08-01T17:46:12.759Z,27.35
2022-08-01T17:48:40.819Z,27.24
2022-08-01T17:51:08.858Z,27.29
2022-08-01T17:53:36.983Z,27.22
2022-08-01T17:56:23.939Z,27.21
2022-08-01T17:58:53.418Z,27.17
2022-08-01T18:01:21.640Z,27.12
2022-08-01T18:03:54.955Z,27.10
2022-08-01T18:06:23.812Z,27.03
2022-08-01T18:08:55.398Z,26.90
2022-08-01T18:11:27.557Z,26.89
2022-08-01T18:13:59.591Z,26.87
2022-08-01T18:16:28.033Z,26.83
2022-08-01T18:18:56.198Z,26.79
2022-08-01T18:21:24.238Z,26.71
2022-08-01T18:23:52.529Z,26.74
2022-08-01T18:26:21.780Z,26.61
2022-08-01T18:28:49.951Z,26.66
2022-08-01T18:31:20.800Z,26.52
2022-08-01T18:33:49.289Z,26.48
2022-08-01T18:36:32.205Z,26.41
2022-08-01T18:39:04.577Z,26.39
2022-08-01T18:41:33.937Z,26.38
2022-08-01T18:44:03.850Z,26.46
2022-08-01T18:46:37.818Z,26.43
2022-08-01T18:49:06.937Z,26.48
2022-08-01T18:51:38.854Z,26.48
2022-08-01T18:54:11.298Z,26.47
2022-08-01T18:56:39.328Z,26.41
2022-08-01T18:59:07.369Z,26.36
2022-08-01T19:01:36.858Z,26.35
2022-08-01T19:04:05.526Z,26.33
2022-08-01T19:06:33.550Z,26.30
2022-08-01T19:09:03.570Z,26.23
2022-08-01T19:11:32.027Z,26.16
2022-08-01T19:14:01.226Z,26.18
2022-08-01T19:16:29.282Z,26.13
2022-08-01T19:18:58.839Z,26.06
2022-08-01T19:21:27.219Z,26.09
2022-08-01T19:24:12.699Z,26.00
2022-08-01T19:26:46.842Z,25.94
2022-08-01T19:29:18.369Z,25.93
2022-08-01T19:31:49.070Z,25.92
2022-08-01T19:34:20.482Z,25.95
2022-08-01T19:36:57.793Z,25.87
2022-08-01T19:39:28.314Z,25.85
2022-08-01T19:41:59.475Z,25.85
2022-08-01T19:44:29.713Z,25.85
2022-08-01T19:46:57.874Z,25.85
2022-08-01T19:49:27.386Z,25.83
2022-08-01T19:52:01.357Z,25.76
2022-08-01T19:54:35.720Z,25.76
2022-08-01T19:57:06.224Z,25.74
2022-08-01T19:59:36.530Z,25.70
2022-08-01T20:02:05.564Z,25.67
2022-08-01T20:04:36.641Z,25.52
2022-08-01T20:07:05.664Z,25.52
2022-08-01T20:09:34.602Z,25.46
2022-08-01T20:12:02.791Z,25.48
2022-08-01T20:14:31.080Z,25.39
2022-08-01T20:17:00.250Z,25.37
2022-08-01T20:19:29.538Z,25.37
2022-08-01T20:22:03.838Z,25.34
2022-08-01T20:24:39.494Z,25.29
2022-08-01T20:27:10.167Z,25.27
2022-08-01T20:29:39.199Z,25.22
2022-08-01T20:32:08.863Z,25.21
2022-08-01T20:34:39.020Z,25.12
2022-08-01T20:37:13.327Z,25.03
2022-08-01T20:39:45.005Z,25.04
2022-08-01T20:42:14.255Z,25.01
2022-08-01T20:44:43.096Z,24.96
2022-08-01T20:47:11.465Z,24.95
2022-08-01T20:49:40.199Z,24.93
2022-08-01T20:52:11.331Z,24.92
2022-08-01T20:54:40.482Z,24.86
2022-08-01T20:57:13.321Z,24.86
2022-08-01T20:59:56.854Z,24.86
2022-08-01T21:02:41.432Z,24.70
2022-08-01T21:05:11.495Z,24.69
2022-08-01T21:07:48.927Z,24.68
2022-08-01T21:10:19.487Z,24.65
2022-08-01T21:12:51.246Z,24.57
2022-08-01T21:15:28.351Z,24.53
2022-08-01T21:18:02.582Z,24.47
2022-08-01T21:20:33.754Z,24.41
2022-08-01T21:23:10.791Z,24.39
2022-08-01T21:25:39.227Z,24.32
2022-08-01T21:28:07.282Z,24.27
2022-08-01T21:30:37.451Z,24.24
2022-08-01T21:33:06.223Z,24.13
2022-08-01T21:35:35.525Z,24.08
2022-08-01T21:38:05.680Z,24.00
2022-08-01T21:40:35.152Z,23.97
2022-08-01T21:43:04.170Z,23.92
2022-08-01T21:45:32.421Z,23.68
2022-08-01T21:48:01.173Z,23.57
2022-08-01T21:50:40.479Z,23.42
2022-08-01T21:53:17.147Z,23.44
2022-08-01T21:56:13.540Z,23.42
2022-08-01T21:58:52.160Z,23.38
2022-08-01T22:01:28.335Z,23.42
2022-08-01T22:04:00.043Z,23.42
2022-08-01T22:06:34.193Z,23.43
2022-08-01T22:09:06.773Z,23.29
2022-08-01T22:11:38.316Z,23.25
2022-08-01T22:14:28.053Z,23.17
2022-08-01T22:16:56.590Z,23.09
2022-08-01T22:19:44.373Z,23.01
2022-08-01T22:22:45.279Z,22.93
2022-08-01T22:25:04.019Z,22.91
2022-08-01T22:28:07.761Z,22.90
2022-08-01T22:30:20.736Z,22.77
2022-08-01T22:33:07.239Z,22.79
2022-08-01T22:35:39.877Z,22.67
2022-08-01T22:38:09.678Z,22.57
2022-08-01T22:40:46.261Z,22.56
2022-08-01T22:43:19.984Z,22.50
2022-08-01T22:45:52.903Z,22.43
2022-08-01T22:48:26.036Z,22.36
2022-08-01T22:50:58.584Z,22.21
2022-08-01T22:53:33.964Z,22.10
2022-08-01T22:56:09.151Z,22.07
2022-08-01T22:58:37.303Z,21.98
2022-08-01T23:01:08.421Z,21.89
2022-08-01T23:03:40.929Z,21.80
2022-08-01T23:06:12.967Z,21.66
2022-08-01T23:08:41.853Z,21.60
2022-08-01T23:11:12.482Z,21.51
2022-08-01T23:13:40.843Z,21.49
2022-08-01T23:16:09.791Z,21.52
2022-08-01T23:18:44.645Z,21.49
2022-08-01T23:21:14.587Z,21.49
2022-08-01T23:23:43.909Z,21.44
2022-08-01T23:26:13.395Z,21.43
2022-08-01T23:28:44.563Z,21.25
2022-08-01T23:31:12.930Z,21.25
2022-08-01T23:33:40.987Z,21.26
2022-08-01T23:36:09.610Z,21.09
2022-08-01T23:38:37.650Z,21.12
2022-08-01T23:41:14.947Z,21.17
2022-08-01T23:43:52.430Z,21.16
2022-08-01T23:46:20.696Z,21.19
2022-08-01T23:48:48.835Z,21.21
2022-08-01T23:51:24.288Z,21.22
2022-08-01T23:53:53.389Z,21.24
2022-08-01T23:56:25.157Z,21.42
2022-08-01T23:58:54.870Z,21.32
